Time;durP1;ratioP1;P1;durP2;ratioP2;P2;SDS_P1;SDS_P2;PMS_P1;PMS_P2;Temp;Humidity;BMP_temperature;BMP_pressure;BME280_temperature;BME280_humidity;BME280_pressure;Samples;Min_cycle;Max_cycle;Signal;HPM_P1;HPM_P2
2021/07/30 00:00:41;;;;;;;2.60;1.83;;;;;20.60;100890.00;;;;5047188;28;20200;-77
2021/07/30 00:03:08;;;;;;;3.22;2.10;;;;;20.60;100887.00;;;;5027938;28;20211;-77
2021/07/30 00:05:36;;;;;;;3.00;2.10;;;;;20.60;100883.00;;;;5041516;28;20210;-77
2021/07/30 00:08:03;;;;;;;4.95;2.30;;;;;20.50;100887.00;;;;5047164;28;20196;-77
2021/07/30 00:10:31;;;;;;;2.92;2.35;;;;;20.50;100889.00;;;;5046644;28;20685;-77
2021/07/30 00:12:59;;;;;;;3.58;2.28;;;;;20.50;100892.00;;;;5046589;28;20207;-76
2021/07/30 00:15:26;;;;;;;4.78;2.10;;;;;20.50;100885.00;;;;5044409;28;20261;-77
2021/07/30 00:17:54;;;;;;;2.92;1.80;;;;;20.40;100883.00;;;;5030061;28;20224;-75
2021/07/30 00:20:21;;;;;;;3.75;2.42;;;;;20.40;100884.00;;;;5039393;28;20199;-75
2021/07/30 00:22:49;;;;;;;3.40;2.13;;;;;20.40;100887.00;;;;5047567;28;20204;-76
2021/07/30 00:25:16;;;;;;;3.50;2.40;;;;;20.40;100883.00;;;;5036075;28;20227;-76
2021/07/30 00:27:43;;;;;;;3.17;2.22;;;;;20.40;100884.00;;;;5036798;28;20192;-76
2021/07/30 00:30:13;;;;;;;2.80;2.08;;;;;20.30;100881.00;;;;5044560;28;20203;-75
2021/07/30 00:32:40;;;;;;;4.15;2.47;;;;;20.30;100888.00;;;;5045745;28;20207;-76
2021/07/30 00:35:08;;;;;;;4.07;2.22;;;;;20.30;100878.00;;;;5042532;28;20281;-77
2021/07/30 00:37:36;;;;;;;3.25;2.35;;;;;20.30;100878.00;;;;5030560;28;20231;-78
2021/07/30 00:40:05;;;;;;;3.95;2.55;;;;;20.30;100887.00;;;;5040251;28;21109;-77
2021/07/30 00:42:33;;;;;;;5.07;3.22;;;;;20.30;100881.00;;;;5048973;28;20678;-76
2021/07/30 00:45:00;;;;;;;2.95;2.53;;;;;20.30;100883.00;;;;5051049;28;20195;-76
2021/07/30 00:47:30;;;;;;;5.53;2.35;;;;;20.20;100876.00;;;;5049993;28;20204;-77
2021/07/30 00:49:59;;;;;;;3.85;1.95;;;;;20.20;100872.00;;;;5036377;28;20192;-78
2021/07/30 00:52:26;;;;;;;3.35;2.70;;;;;20.20;100867.00;;;;5049446;28;20195;-77
2021/07/30 00:54:54;;;;;;;2.47;2.10;;;;;20.20;100870.00;;;;5041497;28;20199;-78
2021/07/30 00:57:23;;;;;;;4.63;3.00;;;;;20.10;100864.00;;;;5049699;28;20211;-78
2021/07/30 00:59:51;;;;;;;3.97;2.28;;;;;20.10;100868.00;;;;5050046;28;20210;-77
2021/07/30 01:02:19;;;;;;;3.10;2.50;;;;;20.10;100868.00;;;;5043295;28;20197;-77
2021/07/30 01:04:47;;;;;;;3.80;2.92;;;;;20.10;100873.00;;;;5047372;28;20200;-77
2021/07/30 01:07:15;;;;;;;3.15;2.60;;;;;20.10;100868.00;;;;5030871;28;20211;-77
2021/07/30 01:09:42;;;;;;;4.70;2.35;;;;;20.10;100873.00;;;;5047908;28;20199;-77
2021/07/30 01:12:11;;;;;;;3.25;2.30;;;;;20.10;100868.00;;;;5048930;28;20208;-77
2021/07/30 01:14:39;;;;;;;3.28;2.42;;;;;20.10;100872.00;;;;5049953;28;20195;-77
2021/07/30 01:17:06;;;;;;;3.15;2.17;;;;;20.10;100862.00;;;;5048071;28;20199;-77
2021/07/30 01:19:33;;;;;;;3.72;2.63;;;;;20.10;100860.00;;;;5036554;28;20192;-77
2021/07/30 01:22:09;;;;;;;5.53;2.55;;;;;20.00;100862.00;;;;5037095;28;20201;-77
2021/07/30 01:24:38;;;;;;;3.50;2.22;;;;;20.00;100859.00;;;;5036819;28;20215;-77
2021/07/30 01:27:05;;;;;;;4.43;2.08;;;;;20.00;100864.00;;;;5050278;28;20199;-77
2021/07/30 01:29:32;;;;;;;2.85;2.17;;;;;20.00;100863.00;;;;5048724;28;20198;-77
2021/07/30 01:31:59;;;;;;;3.38;2.60;;;;;20.00;100858.00;;;;5050695;28;20192;-77
2021/07/30 01:34:27;;;;;;;3.78;2.53;;;;;20.00;100863.00;;;;5048673;28;20231;-76
2021/07/30 01:36:54;;;;;;;4.38;2.38;;;;;20.00;100866.00;;;;5047895;28;20203;-77
2021/07/30 01:39:21;;;;;;;4.20;2.65;;;;;19.90;100861.00;;;;5044157;28;20708;-77
2021/07/30 01:41:50;;;;;;;3.50;2.47;;;;;19.90;100862.00;;;;5049622;28;20198;-76
2021/07/30 01:44:17;;;;;;;3.95;2.65;;;;;19.90;100863.00;;;;5049139;28;20215;-77
2021/07/30 01:46:45;;;;;;;3.72;2.28;;;;;19.90;100865.00;;;;5044384;28;20214;-77
2021/07/30 01:49:12;;;;;;;2.70;2.20;;;;;19.90;100856.00;;;;5037095;28;20236;-78
2021/07/30 01:51:39;;;;;;;4.55;2.65;;;;;19.90;100857.00;;;;5044155;28;20254;-77
2021/07/30 01:54:07;;;;;;;6.88;2.28;;;;;19.90;100856.00;;;;5046877;28;20204;-77
2021/07/30 01:56:34;;;;;;;4.10;2.88;;;;;19.90;100854.00;;;;5048731;28;20225;-77
2021/07/30 01:59:03;;;;;;;2.95;2.58;;;;;19.80;100845.00;;;;5045557;28;20219;-77
2021/07/30 02:01:30;;;;;;;3.20;2.53;;;;;19.80;100844.00;;;;5049510;28;20200;-77
2021/07/30 02:03:59;;;;;;;5.45;2.30;;;;;19.80;100851.00;;;;5048151;28;20210;-77
2021/07/30 02:06:27;;;;;;;2.65;2.22;;;;;19.80;100845.00;;;;5043653;28;20203;-77
2021/07/30 02:08:54;;;;;;;3.85;3.05;;;;;19.80;100838.00;;;;5049685;28;20683;-77
2021/07/30 02:11:21;;;;;;;4.80;2.45;;;;;19.80;100835.00;;;;5049526;28;20196;-77
2021/07/30 02:16:34;;;;;;;3.50;3.00;;;;;19.70;100843.00;;;;5029666;28;20207;-77
2021/07/30 02:19:01;;;;;;;5.53;3.28;;;;;19.70;100835.00;;;;5042610;28;20223;-77
2021/07/30 02:21:29;;;;;;;3.40;2.50;;;;;19.70;100832.00;;;;5049713;28;20211;-77
2021/07/30 02:23:56;;;;;;;5.07;3.33;;;;;19.70;100833.00;;;;5048449;28;20262;-77
2021/07/30 02:26:23;;;;;;;6.28;2.97;;;;;19.70;100831.00;;;;5048061;28;20199;-77
2021/07/30 02:28:50;;;;;;;3.45;2.53;;;;;19.70;100836.00;;;;5046940;28;20199;-78
2021/07/30 02:31:17;;;;;;;3.47;2.53;;;;;19.70;100837.00;;;;5048380;28;20188;-77
2021/07/30 02:33:46;;;;;;;3.30;3.00;;;;;19.60;100844.00;;;;5047708;28;20235;-78
2021/07/30 02:36:13;;;;;;;4.15;2.85;;;;;19.60;100844.00;;;;5042979;28;20555;-77
2021/07/30 02:38:41;;;;;;;4.32;2.50;;;;;19.60;100830.00;;;;5039975;28;20232;-77
2021/07/30 02:41:08;;;;;;;4.30;2.72;;;;;19.60;100837.00;;;;5029624;28;20196;-77
2021/07/30 02:43:36;;;;;;;3.50;2.30;;;;;19.60;100843.00;;;;5045818;28;20207;-77
2021/07/30 02:46:03;;;;;;;5.38;2.97;;;;;19.60;100829.00;;;;5048897;28;20627;-77
2021/07/30 02:48:31;;;;;;;6.05;2.97;;;;;19.60;100825.00;;;;5031543;28;20208;-77
2021/07/30 02:50:59;;;;;;;3.08;2.53;;;;;19.50;100825.00;;;;5042612;28;20202;-78
2021/07/30 02:53:27;;;;;;;3.35;2.55;;;;;19.50;100829.00;;;;5048270;28;20204;-77
2021/07/30 02:55:54;;;;;;;3.58;2.42;;;;;19.50;100823.00;;;;5049444;28;20203;-77
2021/07/30 02:58:21;;;;;;;4.78;2.60;;;;;19.50;100817.00;;;;5040775;28;20715;-77
2021/07/30 03:00:49;;;;;;;5.32;3.10;;;;;19.50;100811.00;;;;5035582;28;20226;-78
2021/07/30 03:03:16;;;;;;;3.15;2.47;;;;;19.50;100808.00;;;;5041818;28;20215;-78
2021/07/30 03:05:43;;;;;;;4.70;2.78;;;;;19.50;100808.00;;;;5036881;28;20230;-78
2021/07/30 03:08:12;;;;;;;3.90;2.72;;;;;19.40;100808.00;;;;5048974;28;20203;-78
2021/07/30 03:10:39;;;;;;;4.95;2.65;;;;;19.40;100807.00;;;;5040446;28;20577;-78
2021/07/30 03:13:06;;;;;;;4.38;2.88;;;;;19.40;100807.00;;;;5037242;28;20205;-78
2021/07/30 03:15:33;;;;;;;4.57;4.05;;;;;19.40;100799.00;;;;5035620;28;20206;-78
2021/07/30 03:18:00;;;;;;;3.38;2.47;;;;;19.40;100803.00;;;;5047536;28;20223;-78
2021/07/30 03:20:28;;;;;;;3.55;2.70;;;;;19.40;100799.00;;;;5047674;28;20191;-77
2021/07/30 03:22:55;;;;;;;3.55;2.33;;;;;19.40;100799.00;;;;5036343;28;20199;-78
2021/07/30 03:25:23;;;;;;;3.15;2.58;;;;;19.30;100794.00;;;;5035282;28;20216;-78
2021/07/30 03:27:51;;;;;;;4.10;2.10;;;;;19.30;100801.00;;;;5043293;28;20203;-78
2021/07/30 03:30:18;;;;;;;4.40;3.00;;;;;19.30;100799.00;;;;5047879;28;20210;-78
2021/07/30 03:32:45;;;;;;;5.05;2.90;;;;;19.30;100799.00;;;;5041790;28;20204;-78
2021/07/30 03:35:12;;;;;;;3.88;2.55;;;;;19.30;100797.00;;;;5038603;28;20246;-78
2021/07/30 03:37:40;;;;;;;5.30;3.05;;;;;19.30;100807.00;;;;5047109;28;20696;-77
2021/07/30 03:40:08;;;;;;;4.05;2.88;;;;;19.20;100801.00;;;;5047562;28;20205;-78
2021/07/30 03:42:37;;;;;;;3.13;2.83;;;;;19.20;100799.00;;;;5027855;28;20204;-78
2021/07/30 03:45:05;;;;;;;2.88;2.38;;;;;19.20;100806.00;;;;5046562;28;20196;-78
2021/07/30 03:47:32;;;;;;;3.63;2.70;;;;;19.20;100791.00;;;;5039906;28;20191;-78
2021/07/30 03:49:59;;;;;;;3.83;2.78;;;;;19.20;100793.00;;;;5036416;28;20187;-78
2021/07/30 03:52:26;;;;;;;3.63;2.58;;;;;19.20;100796.00;;;;5047645;28;20195;-78
2021/07/30 03:54:53;;;;;;;4.55;2.65;;;;;19.20;100796.00;;;;5047564;28;20203;-77
2021/07/30 03:57:21;;;;;;;5.78;3.33;;;;;19.20;100797.00;;;;5047879;28;20202;-78
2021/07/30 03:59:49;;;;;;;3.63;2.75;;;;;19.20;100793.00;;;;5046668;28;20234;-78
2021/07/30 04:02:18;;;;;;;5.22;2.90;;;;;19.20;100787.00;;;;5046770;28;20674;-78
2021/07/30 04:04:45;;;;;;;4.05;2.80;;;;;19.20;100795.00;;;;5031930;28;20288;-78
2021/07/30 04:07:12;;;;;;;5.32;2.55;;;;;19.20;100788.00;;;;5033996;28;20204;-78
2021/07/30 04:09:40;;;;;;;5.00;3.05;;;;;19.20;100789.00;;;;5047734;28;20192;-78
2021/07/30 04:12:08;;;;;;;4.30;2.88;;;;;19.20;100785.00;;;;5047951;28;20192;-77
2021/07/30 04:14:35;;;;;;;4.63;3.15;;;;;19.20;100782.00;;;;5047765;28;20199;-77
2021/07/30 04:17:04;;;;;;;4.82;3.00;;;;;19.20;100780.00;;;;5043666;28;20197;-78
2021/07/30 04:19:31;;;;;;;6.57;3.20;;;;;19.20;100781.00;;;;5046098;28;20216;-77
2021/07/30 04:21:58;;;;;;;5.22;3.33;;;;;19.20;100783.00;;;;5048266;28;20191;-78
2021/07/30 04:24:25;;;;;;;5.60;3.55;;;;;19.20;100781.00;;;;5049369;28;20208;-78
2021/07/30 04:26:53;;;;;;;4.38;3.08;;;;;19.30;100786.00;;;;5040518;28;20218;-77
2021/07/30 04:29:20;;;;;;;4.32;3.05;;;;;19.30;100790.00;;;;5051603;28;20265;-78
2021/07/30 04:31:48;;;;;;;6.15;3.17;;;;;19.30;100782.00;;;;5051467;28;20211;-78
2021/07/30 04:34:16;;;;;;;3.97;3.10;;;;;19.30;100776.00;;;;5044710;28;20228;-78
2021/07/30 04:36:43;;;;;;;5.45;3.15;;;;;19.30;100784.00;;;;5034909;28;20205;-77
2021/07/30 04:39:11;;;;;;;3.95;2.90;;;;;19.40;100773.00;;;;5050382;28;20250;-78
2021/07/30 04:41:38;;;;;;;4.20;3.05;;;;;19.40;100771.00;;;;5051569;28;20207;-78
2021/07/30 04:44:06;;;;;;;5.07;3.50;;;;;19.40;100771.00;;;;5042254;28;20200;-78
2021/07/30 04:46:34;;;;;;;6.10;3.92;;;;;19.40;100772.00;;;;5051225;28;20203;-78
2021/07/30 04:49:01;;;;;;;4.43;3.22;;;;;19.40;100773.00;;;;5036569;28;20208;-78
2021/07/30 04:51:29;;;;;;;3.72;3.15;;;;;19.50;100777.00;;;;5049480;28;20207;-77
2021/07/30 04:53:57;;;;;;;4.55;3.33;;;;;19.50;100776.00;;;;5047582;28;20199;-78
2021/07/30 04:56:24;;;;;;;3.97;2.67;;;;;19.50;100770.00;;;;5051067;28;21529;-78
2021/07/30 04:58:51;;;;;;;4.57;3.30;;;;;19.60;100761.00;;;;5041928;28;20243;-77
2021/07/30 05:01:19;;;;;;;5.22;3.33;;;;;19.60;100768.00;;;;5038598;28;20287;-78
2021/07/30 05:03:46;;;;;;;3.25;2.92;;;;;19.60;100761.00;;;;5041927;28;20298;-78
2021/07/30 05:06:14;;;;;;;4.22;3.13;;;;;19.60;100768.00;;;;5045808;28;20211;-78
2021/07/30 05:08:43;;;;;;;4.78;3.47;;;;;19.60;100767.00;;;;5040952;28;20208;-76
2021/07/30 05:11:11;;;;;;;4.47;3.03;;;;;19.70;100765.00;;;;5039342;28;20200;-77
2021/07/30 05:13:39;;;;;;;7.15;3.33;;;;;19.70;100767.00;;;;5048163;28;20204;-77
2021/07/30 05:16:08;;;;;;;3.60;2.75;;;;;19.70;100760.00;;;;5044111;28;20244;-78
2021/07/30 05:18:36;;;;;;;4.00;3.08;;;;;19.80;100763.00;;;;5038120;28;20646;-77
2021/07/30 05:21:06;;;;;;;4.18;3.35;;;;;19.80;100762.00;;;;5044920;28;20203;-76
2021/07/30 05:23:34;;;;;;;4.97;3.50;;;;;19.80;100755.00;;;;5041024;28;20223;-76
2021/07/30 05:26:03;;;;;;;3.58;3.22;;;;;19.80;100757.00;;;;5042413;28;20203;-77
2021/07/30 05:28:31;;;;;;;4.70;2.95;;;;;19.90;100758.00;;;;5030453;28;20219;-76
2021/07/30 05:30:58;;;;;;;6.90;3.28;;;;;20.00;100753.00;;;;5037481;28;20250;-77
2021/07/30 05:33:26;;;;;;;5.93;3.58;;;;;20.00;100744.00;;;;5035394;28;22086;-75
2021/07/30 05:35:54;;;;;;;6.30;3.13;;;;;20.10;100745.00;;;;5048139;28;20200;-77
2021/07/30 05:38:22;;;;;;;6.65;3.97;;;;;20.10;100749.00;;;;5034305;28;20206;-77
2021/07/30 05:40:50;;;;;;;3.83;3.15;;;;;20.20;100750.00;;;;5035597;28;20565;-77
2021/07/30 05:43:18;;;;;;;6.30;3.58;;;;;20.20;100742.00;;;;5034898;28;20203;-76
2021/07/30 05:45:45;;;;;;;3.90;3.30;;;;;20.30;100747.00;;;;5034134;28;20209;-75
2021/07/30 05:48:13;;;;;;;4.95;3.65;;;;;20.30;100750.00;;;;5031957;28;20215;-76
2021/07/30 05:50:40;;;;;;;4.50;3.55;;;;;20.40;100735.00;;;;5039437;28;20200;-76
2021/07/30 05:53:07;;;;;;;4.53;3.20;;;;;20.40;100739.00;;;;5041926;28;20201;-77
2021/07/30 05:55:37;;;;;;;3.28;2.78;;;;;20.40;100738.00;;;;5035515;28;20607;-75
2021/07/30 05:58:04;;;;;;;3.92;2.88;;;;;20.50;100732.00;;;;5035711;28;20199;-75
2021/07/30 06:00:32;;;;;;;5.30;3.65;;;;;20.50;100735.00;;;;5045937;28;20589;-76
2021/07/30 06:03:00;;;;;;;4.75;3.08;;;;;20.60;100739.00;;;;5045595;28;20199;-76
2021/07/30 06:05:27;;;;;;;5.43;3.00;;;;;20.60;100740.00;;;;5032767;28;20199;-76
2021/07/30 06:07:57;;;;;;;5.15;3.70;;;;;20.70;100735.00;;;;5035944;28;20204;-78
2021/07/30 06:10:25;;;;;;;5.63;3.45;;;;;20.80;100731.00;;;;5032178;28;20227;-74
2021/07/30 06:12:53;;;;;;;3.75;2.85;;;;;20.80;100732.00;;;;5041833;28;20242;-76
2021/07/30 06:15:22;;;;;;;4.68;3.00;;;;;20.90;100723.00;;;;5049318;28;20681;-75
2021/07/30 06:17:52;;;;;;;3.72;3.33;;;;;21.00;100719.00;;;;5048755;28;20196;-76
2021/07/30 06:20:19;;;;;;;4.55;2.95;;;;;21.10;100731.00;;;;5048238;28;20223;-76
2021/07/30 06:22:47;;;;;;;4.20;2.92;;;;;21.10;100732.00;;;;5043473;28;20231;-76
2021/07/30 06:25:14;;;;;;;4.85;3.33;;;;;21.20;100728.00;;;;5041500;28;20223;-77
2021/07/30 06:27:42;;;;;;;3.45;2.42;;;;;21.30;100723.00;;;;5045418;28;20191;-78
2021/07/30 06:30:10;;;;;;;5.57;3.05;;;;;21.40;100726.00;;;;5047911;28;20298;-77
2021/07/30 06:32:39;;;;;;;4.70;2.83;;;;;21.40;100726.00;;;;5041030;28;20200;-77
2021/07/30 06:35:09;;;;;;;5.57;2.88;;;;;21.50;100730.00;;;;5047670;28;20301;-78
2021/07/30 06:37:37;;;;;;;4.78;3.53;;;;;21.60;100731.00;;;;5046934;28;20208;-77
2021/07/30 06:40:06;;;;;;;3.85;2.53;;;;;21.70;100726.00;;;;5046673;28;20227;-78
2021/07/30 06:42:34;;;;;;;6.20;2.70;;;;;21.70;100726.00;;;;5046802;28;20196;-78
2021/07/30 06:45:01;;;;;;;5.68;3.05;;;;;21.80;100721.00;;;;5041857;28;20261;-78
2021/07/30 06:47:29;;;;;;;3.53;2.78;;;;;21.90;100714.00;;;;5047475;28;20199;-78
2021/07/30 06:49:56;;;;;;;5.68;3.28;;;;;22.00;100709.00;;;;5045092;28;20199;-78
2021/07/30 06:52:25;;;;;;;7.10;3.47;;;;;22.10;100702.00;;;;5047894;28;20202;-78
2021/07/30 06:54:55;;;;;;;3.83;3.22;;;;;22.20;100709.00;;;;5047830;28;20200;-77
2021/07/30 06:57:22;;;;;;;5.63;2.92;;;;;22.30;100702.00;;;;5048261;28;20203;-77
2021/07/30 06:59:49;;;;;;;7.20;3.63;;;;;22.30;100707.00;;;;5043388;28;20736;-78
2021/07/30 07:02:17;;;;;;;5.43;3.00;;;;;22.40;100696.00;;;;5047380;28;20704;-77
2021/07/30 07:04:44;;;;;;;3.80;2.47;;;;;22.50;100701.00;;;;5047785;28;20207;-78
2021/07/30 07:07:12;;;;;;;4.00;2.72;;;;;22.50;100697.00;;;;5047248;28;20212;-77
2021/07/30 07:09:41;;;;;;;4.38;3.08;;;;;22.60;100705.00;;;;5042191;28;20203;-77
2021/07/30 07:12:08;;;;;;;4.65;3.10;;;;;22.70;100705.00;;;;5045228;28;20210;-77
2021/07/30 07:14:36;;;;;;;5.35;3.10;;;;;22.80;100700.00;;;;5044610;28;20196;-77
2021/07/30 07:17:03;;;;;;;5.25;2.95;;;;;22.80;100704.00;;;;5040452;28;20195;-77
2021/07/30 07:19:30;;;;;;;4.35;2.97;;;;;22.90;100697.00;;;;5045567;28;20223;-76
2021/07/30 07:21:58;;;;;;;5.43;2.78;;;;;23.00;100701.00;;;;5039057;28;20192;-76
2021/07/30 07:24:25;;;;;;;4.82;3.10;;;;;23.10;100701.00;;;;5037349;28;20228;-76
2021/07/30 07:26:54;;;;;;;3.78;2.33;;;;;23.10;100701.00;;;;5048279;28;20200;-77
2021/07/30 07:29:21;;;;;;;4.95;2.85;;;;;23.20;100703.00;;;;5038355;28;20188;-75
2021/07/30 07:31:48;;;;;;;3.30;2.40;;;;;23.30;100702.00;;;;5044020;28;20203;-76
2021/07/30 07:34:15;;;;;;;8.43;3.03;;;;;23.30;100707.00;;;;5042747;28;20228;-76
2021/07/30 07:36:43;;;;;;;7.03;3.25;;;;;23.40;100696.00;;;;5042426;28;20202;-76
2021/07/30 07:39:10;;;;;;;5.55;2.72;;;;;23.50;100693.00;;;;5043674;28;20922;-75
2021/07/30 07:41:37;;;;;;;4.53;3.25;;;;;23.60;100684.00;;;;5043355;28;20195;-76
2021/07/30 07:44:07;;;;;;;8.50;2.95;;;;;23.70;100686.00;;;;5043245;28;20689;-76
2021/07/30 07:46:35;;;;;;;6.95;2.88;;;;;23.80;100692.00;;;;5043852;28;20195;-76
2021/07/30 07:49:02;;;;;;;4.43;2.85;;;;;24.00;100694.00;;;;5043770;28;20223;-75
2021/07/30 07:51:30;;;;;;;4.82;2.85;;;;;24.10;100685.00;;;;5046941;28;20610;-75
2021/07/30 07:53:57;;;;;;;7.80;3.28;;;;;24.20;100684.00;;;;5048389;28;20202;-75
2021/07/30 07:56:24;;;;;;;5.40;3.38;;;;;24.30;100676.00;;;;5045700;28;20623;-75
2021/07/30 07:58:51;;;;;;;3.90;2.65;;;;;24.40;100684.00;;;;5046988;28;20218;-75
2021/07/30 08:01:20;;;;;;;6.85;3.60;;;;;24.60;100677.00;;;;5047888;28;20242;-75
2021/07/30 08:03:47;;;;;;;5.10;3.05;;;;;24.70;100674.00;;;;5045422;28;20208;-76
2021/07/30 08:06:18;;;;;;;6.22;3.22;;;;;24.80;100660.00;;;;5043940;28;20204;-75
2021/07/30 08:08:45;;;;;;;4.28;2.50;;;;;24.90;100663.00;;;;5042792;28;20235;-75
2021/07/30 08:11:13;;;;;;;6.78;3.38;;;;;25.00;100663.00;;;;5040764;28;20208;-74
2021/07/30 08:13:41;;;;;;;5.03;2.92;;;;;25.10;100655.00;;;;5044147;28;20200;-76
2021/07/30 08:16:08;;;;;;;5.35;2.63;;;;;25.20;100671.00;;;;5042239;28;20246;-77
2021/07/30 08:18:37;;;;;;;5.97;2.75;;;;;25.30;100666.00;;;;5037532;28;20207;-75
2021/07/30 08:21:05;;;;;;;9.20;3.60;;;;;25.40;100668.00;;;;5043280;28;20230;-76
2021/07/30 08:23:32;;;;;;;5.72;3.03;;;;;25.50;100658.00;;;;5047293;28;20596;-75
2021/07/30 08:25:59;;;;;;;4.35;2.50;;;;;25.50;100657.00;;;;5046392;28;20669;-76
2021/07/30 08:28:27;;;;;;;7.35;2.72;;;;;25.60;100656.00;;;;5045773;28;20669;-75
2021/07/30 08:30:54;;;;;;;7.15;2.83;;;;;25.60;100660.00;;;;5045609;28;20249;-75
2021/07/30 08:33:22;;;;;;;3.80;2.05;;;;;25.70;100655.00;;;;5044798;28;20303;-76
2021/07/30 08:35:52;;;;;;;4.07;2.67;;;;;25.70;100663.00;;;;5045833;28;20207;-75
2021/07/30 08:38:19;;;;;;;3.15;2.40;;;;;25.80;100668.00;;;;5049134;28;20284;-75
2021/07/30 08:40:46;;;;;;;6.72;3.20;;;;;25.90;100656.00;;;;5048201;28;20219;-76
2021/07/30 08:43:15;;;;;;;5.95;2.58;;;;;25.90;100659.00;;;;5046483;28;20200;-76
2021/07/30 08:45:48;;;;;;;4.35;2.78;;;;;26.00;100648.00;;;;5049367;28;20200;-76
2021/07/30 08:48:21;;;;;;;3.92;2.08;;;;;26.10;100655.00;;;;5046190;28;20283;-78
2021/07/30 08:50:51;;;;;;;5.07;2.45;;;;;26.10;100646.00;;;;5046891;28;20237;-79
2021/07/30 08:53:25;;;;;;;6.60;2.83;;;;;26.10;100651.00;;;;5049782;28;20665;-79
2021/07/30 08:55:54;;;;;;;4.50;2.70;;;;;26.10;100657.00;;;;5049519;28;20245;-77
2021/07/30 08:58:21;;;;;;;6.10;2.90;;;;;26.20;100648.00;;;;5050291;28;20677;-79
2021/07/30 09:00:49;;;;;;;3.95;2.40;;;;;26.30;100640.00;;;;5050831;28;20250;-79
2021/07/30 09:03:17;;;;;;;4.88;2.45;;;;;26.40;100642.00;;;;5050267;28;20783;-79
2021/07/30 09:05:44;;;;;;;4.88;2.67;;;;;26.50;100644.00;;;;5050394;28;20210;-78
2021/07/30 09:08:24;;;;;;;5.20;2.28;;;;;26.50;100637.00;;;;5050560;28;20218;-79
2021/07/30 09:10:54;;;;;;;4.60;2.70;;;;;26.60;100643.00;;;;5049383;28;20741;-81
2021/07/30 09:13:24;;;;;;;2.78;2.30;;;;;26.70;100644.00;;;;5038899;28;20570;-79
2021/07/30 09:16:02;;;;;;;4.00;2.15;;;;;26.70;100637.00;;;;5034314;28;20232;-80
2021/07/30 09:18:35;;;;;;;3.42;2.03;;;;;26.80;100638.00;;;;5031023;28;20204;-79
2021/07/30 09:21:28;;;;;;;4.70;2.42;;;;;26.80;100633.00;;;;5034679;28;20237;-78
2021/07/30 09:23:58;;;;;;;2.40;1.85;;;;;26.90;100635.00;;;;5031823;28;20220;-79
2021/07/30 09:26:30;;;;;;;4.43;2.75;;;;;26.90;100628.00;;;;5038106;28;20269;-79
2021/07/30 09:28:58;;;;;;;4.05;1.95;;;;;27.00;100625.00;;;;5037153;28;20199;-78
2021/07/30 09:31:34;;;;;;;3.47;2.40;;;;;27.00;100620.00;;;;5035104;28;20196;-78
2021/07/30 09:34:12;;;;;;;2.58;1.80;;;;;26.90;100615.00;;;;5038552;28;20597;-77
2021/07/30 09:36:43;;;;;;;4.53;1.80;;;;;27.00;100611.00;;;;5043658;28;20199;-79
2021/07/30 09:39:12;;;;;;;3.90;1.85;;;;;27.00;100608.00;;;;5041418;28;20253;-80
2021/07/30 09:41:40;;;;;;;3.83;1.92;;;;;27.00;100604.00;;;;5044677;28;20701;-78
2021/07/30 09:44:08;;;;;;;3.05;2.00;;;;;27.10;100603.00;;;;5036154;28;20203;-80
2021/07/30 09:46:36;;;;;;;5.47;2.17;;;;;27.10;100597.00;;;;5036841;28;20202;-81
2021/07/30 09:49:03;;;;;;;2.50;1.98;;;;;27.10;100608.00;;;;5042877;28;20222;-80
2021/07/30 09:51:30;;;;;;;3.90;2.00;;;;;27.10;100597.00;;;;5038977;28;20206;-80
2021/07/30 09:53:59;;;;;;;3.83;2.08;;;;;27.20;100603.00;;;;5041702;28;20199;-80
2021/07/30 09:56:29;;;;;;;3.78;2.22;;;;;27.20;100600.00;;;;5039991;28;20207;-80
2021/07/30 09:58:58;;;;;;;5.07;2.00;;;;;27.20;100596.00;;;;5042638;28;20204;-81
2021/07/30 10:01:27;;;;;;;3.03;1.60;;;;;27.20;100598.00;;;;5040633;28;20705;-80
2021/07/30 10:03:55;;;;;;;3.30;2.22;;;;;27.20;100597.00;;;;5046421;28;20192;-80
2021/07/30 10:06:22;;;;;;;3.97;1.83;;;;;27.20;100590.00;;;;5042846;28;20257;-79
2021/07/30 10:08:50;;;;;;;3.38;1.90;;;;;27.30;100594.00;;;;5035704;28;20685;-77
2021/07/30 10:11:18;;;;;;;2.88;1.67;;;;;27.30;100590.00;;;;5036454;28;20199;-78
2021/07/30 10:13:48;;;;;;;3.55;2.40;;;;;27.40;100574.00;;;;5042061;28;20200;-78
2021/07/30 10:16:17;;;;;;;2.15;1.95;;;;;27.40;100575.00;;;;5038228;28;20654;-79
2021/07/30 10:18:45;;;;;;;4.45;2.35;;;;;27.50;100569.00;;;;5049191;28;20196;-79
2021/07/30 10:21:16;;;;;;;4.25;2.17;;;;;27.50;100562.00;;;;5047323;28;20313;-79
2021/07/30 10:23:47;;;;;;;3.22;1.83;;;;;27.60;100561.00;;;;5047952;28;20206;-78
2021/07/30 10:26:16;;;;;;;3.00;2.13;;;;;27.60;100558.00;;;;5043237;28;20211;-78
2021/07/30 10:28:44;;;;;;;4.22;2.20;;;;;27.70;100556.00;;;;5048228;28;20200;-78
2021/07/30 10:31:14;;;;;;;3.45;2.28;;;;;27.70;100551.00;;;;5046579;28;20233;-78
2021/07/30 10:33:50;;;;;;;2.72;1.98;;;;;27.60;100563.00;;;;5038372;28;20224;-78
2021/07/30 10:36:38;;;;;;;2.53;2.20;;;;;27.60;100558.00;;;;5048219;28;20199;-79
2021/07/30 10:39:15;;;;;;;3.25;2.28;;;;;27.70;100550.00;;;;5040884;28;20202;-78
2021/07/30 10:41:58;;;;;;;4.18;2.15;;;;;27.80;100540.00;;;;5047481;28;20238;-79
2021/07/30 10:44:25;;;;;;;1.90;1.67;;;;;27.80;100542.00;;;;5048859;28;20196;-78
2021/07/30 10:47:20;;;;;;;3.03;2.10;;;;;27.70;100536.00;;;;5046330;28;20274;-78
2021/07/30 10:49:47;;;;;;;2.20;1.75;;;;;27.90;100530.00;;;;5043593;28;20219;-77
2021/07/30 10:52:31;;;;;;;2.47;2.28;;;;;27.80;100532.00;;;;5046958;28;20203;-77
2021/07/30 10:54:58;;;;;;;3.90;1.92;;;;;28.00;100526.00;;;;5030712;28;20200;-77
2021/07/30 10:57:56;;;;;;;3.20;1.92;;;;;27.90;100531.00;;;;5047865;28;20203;-77
2021/07/30 11:00:24;;;;;;;5.15;2.65;;;;;28.10;100528.00;;;;5002433;28;20311;-77
2021/07/30 11:03:08;;;;;;;2.55;2.10;;;;;28.00;100526.00;;;;5024155;28;20602;-77
2021/07/30 11:05:50;;;;;;;3.67;2.08;;;;;28.20;100517.00;;;;5043609;28;20203;-78
2021/07/30 11:08:17;;;;;;;2.60;1.95;;;;;28.20;100513.00;;;;5047147;28;20218;-77
2021/07/30 11:10:45;;;;;;;3.67;2.00;;;;;28.30;100509.00;;;;5045943;28;20576;-78
2021/07/30 11:13:14;;;;;;;2.97;2.67;;;;;28.40;100510.00;;;;5044298;28;20192;-77
2021/07/30 11:15:41;;;;;;;4.97;2.88;;;;;28.40;100511.00;;;;5046411;28;20233;-77
2021/07/30 11:18:15;;;;;;;3.35;2.33;;;;;28.40;100520.00;;;;5047950;28;20236;-77
2021/07/30 11:20:43;;;;;;;3.60;2.42;;;;;28.50;100523.00;;;;5040507;28;20636;-77
2021/07/30 11:23:11;;;;;;;1.92;1.73;;;;;28.50;100521.00;;;;5047755;28;20199;-76
2021/07/30 11:25:39;;;;;;;3.97;1.92;;;;;28.40;100519.00;;;;5044069;28;20223;-76
2021/07/30 11:28:10;;;;;;;2.28;2.05;;;;;28.40;100518.00;;;;5032843;28;20582;-76
2021/07/30 11:30:39;;;;;;;4.50;2.78;;;;;28.30;100514.00;;;;5046779;28;20203;-77
2021/07/30 11:33:07;;;;;;;4.10;2.20;;;;;28.30;100512.00;;;;5047832;28;20196;-77
2021/07/30 11:35:42;;;;;;;2.22;1.67;;;;;28.30;100513.00;;;;5046910;28;20688;-76
2021/07/30 11:38:09;;;;;;;4.13;2.00;;;;;28.30;100513.00;;;;5044099;28;20230;-77
2021/07/30 11:40:37;;;;;;;1.90;1.67;;;;;28.30;100507.00;;;;5047289;28;20219;-77
2021/07/30 11:43:09;;;;;;;3.05;1.98;;;;;28.20;100504.00;;;;5044160;28;20231;-76
2021/07/30 11:45:37;;;;;;;2.80;1.52;;;;;28.30;100502.00;;;;5036352;28;20226;-77
2021/07/30 11:48:13;;;;;;;5.00;2.33;;;;;28.20;100503.00;;;;5047360;28;20199;-76
2021/07/30 11:50:41;;;;;;;2.10;1.95;;;;;28.30;100504.00;;;;5048695;28;20256;-76
2021/07/30 11:53:09;;;;;;;2.95;1.88;;;;;28.30;100499.00;;;;5048238;28;20214;-76
2021/07/30 11:55:37;;;;;;;2.33;2.13;;;;;28.30;100497.00;;;;5048757;28;20211;-76
2021/07/30 11:58:12;;;;;;;2.05;1.80;;;;;28.20;100498.00;;;;5041501;28;20219;-76
2021/07/30 12:00:39;;;;;;;3.53;1.80;;;;;28.30;100489.00;;;;5028578;28;20228;-76
2021/07/30 12:03:22;;;;;;;5.22;2.17;;;;;28.20;100488.00;;;;5029376;28;20227;-76
2021/07/30 12:05:51;;;;;;;2.13;1.83;;;;;28.30;100491.00;;;;5028736;28;20200;-76
2021/07/30 12:08:20;;;;;;;1.98;1.77;;;;;28.30;100490.00;;;;5047830;28;20649;-77
2021/07/30 12:10:49;;;;;;;3.40;2.30;;;;;28.30;100485.00;;;;5031356;28;20200;-76
2021/07/30 12:13:21;;;;;;;2.15;1.83;;;;;28.30;100480.00;;;;5047041;28;20196;-76
2021/07/30 12:15:49;;;;;;;1.70;1.60;;;;;28.20;100477.00;;;;5047650;28;20200;-77
2021/07/30 12:18:16;;;;;;;2.53;2.22;;;;;28.20;100476.00;;;;5048018;28;20191;-76